Terminal Aerodrome Forecast
Issued by NWS

Home | Current Version | Previous Version | Text Only | Print | Product List | Glossary On
Versions: 1 2 3 4 5 6 7 8 9 10 11 12 13 14 15 16 17 18 19 20 21 22 23 24 25 26 27 28 29 30 31 32 33 34
000
FTUS43 KLOT 020304 AAB
TAFORD
TAF AMD
KORD 020304Z 0203/0306 22007KT P6SM SCT200
     FM021200 22012KT P6SM SCT040 BKN150
     FM021400 23013G21KT P6SM VCSH SCT060 BKN100
     FM021700 22020G31KT P6SM SCT050 SCT100
     FM030200 23014KT 3SM TSRA OVC040CB
     FM030400 28009KT P6SM VCSH BKN050=

USA.gov is the U.S. government's official web portal to all federal, state and local government web resources and services.